sensor_id;sensor_type;location;lat;lon;timestamp;P1;durP1;ratioP1;P2;durP2;ratioP2
76256;SDS011;65074;50.436;8.672;2023-04-25T00:00:13;11.00;;;5.90;;
76256;SDS011;65074;50.436;8.672;2023-04-25T00:02:38;8.18;;;4.95;;
76256;SDS011;65074;50.436;8.672;2023-04-25T00:05:04;12.57;;;5.70;;
76256;SDS011;65074;50.436;8.672;2023-04-25T00:07:30;5.75;;;3.63;;
76256;SDS011;65074;50.436;8.672;2023-04-25T00:09:56;7.75;;;5.07;;
76256;SDS011;65074;50.436;8.672;2023-04-25T00:12:21;6.37;;;3.83;;
76256;SDS011;65074;50.436;8.672;2023-04-25T00:14:48;8.68;;;4.82;;
76256;SDS011;65074;50.436;8.672;2023-04-25T00:17:14;9.50;;;5.07;;
76256;SDS011;65074;50.436;8.672;2023-04-25T00:19:40;10.15;;;5.70;;
76256;SDS011;65074;50.436;8.672;2023-04-25T00:22:05;9.97;;;4.80;;
76256;SDS011;65074;50.436;8.672;2023-04-25T00:24:30;12.30;;;5.78;;
76256;SDS011;65074;50.436;8.672;2023-04-25T00:26:55;8.77;;;5.13;;
76256;SDS011;65074;50.436;8.672;2023-04-25T00:29:21;5.70;;;3.23;;
76256;SDS011;65074;50.436;8.672;2023-04-25T00:31:46;11.57;;;5.43;;
76256;SDS011;65074;50.436;8.672;2023-04-25T00:34:11;6.73;;;4.47;;
76256;SDS011;65074;50.436;8.672;2023-04-25T00:36:36;7.50;;;3.73;;
76256;SDS011;65074;50.436;8.672;2023-04-25T00:39:02;9.23;;;5.23;;
76256;SDS011;65074;50.436;8.672;2023-04-25T00:41:29;8.48;;;4.10;;
76256;SDS011;65074;50.436;8.672;2023-04-25T00:43:55;10.00;;;5.13;;
76256;SDS011;65074;50.436;8.672;2023-04-25T00:46:21;9.45;;;4.57;;
76256;SDS011;65074;50.436;8.672;2023-04-25T00:48:46;9.10;;;5.32;;
76256;SDS011;65074;50.436;8.672;2023-04-25T00:51:13;6.87;;;4.33;;
76256;SDS011;65074;50.436;8.672;2023-04-25T00:53:40;11.68;;;5.65;;
76256;SDS011;65074;50.436;8.672;2023-04-25T00:56:06;7.82;;;4.30;;
76256;SDS011;65074;50.436;8.672;2023-04-25T00:58:31;8.23;;;4.28;;
76256;SDS011;65074;50.436;8.672;2023-04-25T01:00:56;8.88;;;4.43;;
76256;SDS011;65074;50.436;8.672;2023-04-25T01:03:22;9.05;;;5.25;;
76256;SDS011;65074;50.436;8.672;2023-04-25T01:05:48;9.98;;;4.60;;
76256;SDS011;65074;50.436;8.672;2023-04-25T01:08:15;12.52;;;5.72;;
76256;SDS011;65074;50.436;8.672;2023-04-25T01:10:40;10.27;;;4.50;;
76256;SDS011;65074;50.436;8.672;2023-04-25T01:13:07;9.63;;;4.35;;
76256;SDS011;65074;50.436;8.672;2023-04-25T01:15:32;10.32;;;5.03;;
76256;SDS011;65074;50.436;8.672;2023-04-25T01:17:58;13.02;;;6.30;;
76256;SDS011;65074;50.436;8.672;2023-04-25T01:20:24;7.80;;;4.22;;
76256;SDS011;65074;50.436;8.672;2023-04-25T01:22:53;11.70;;;5.68;;
76256;SDS011;65074;50.436;8.672;2023-04-25T01:25:19;12.80;;;6.30;;
76256;SDS011;65074;50.436;8.672;2023-04-25T01:27:44;9.63;;;5.50;;
76256;SDS011;65074;50.436;8.672;2023-04-25T01:30:10;9.40;;;4.93;;
76256;SDS011;65074;50.436;8.672;2023-04-25T01:32:36;9.35;;;4.75;;
76256;SDS011;65074;50.436;8.672;2023-04-25T01:35:05;12.18;;;5.45;;
76256;SDS011;65074;50.436;8.672;2023-04-25T01:37:43;9.57;;;5.20;;
76256;SDS011;65074;50.436;8.672;2023-04-25T01:40:10;10.25;;;5.07;;
76256;SDS011;65074;50.436;8.672;2023-04-25T01:42:37;12.02;;;6.15;;
76256;SDS011;65074;50.436;8.672;2023-04-25T01:45:03;11.52;;;5.70;;
76256;SDS011;65074;50.436;8.672;2023-04-25T01:47:28;10.80;;;5.38;;
76256;SDS011;65074;50.436;8.672;2023-04-25T01:49:54;11.02;;;5.88;;
76256;SDS011;65074;50.436;8.672;2023-04-25T01:52:19;11.00;;;5.60;;
76256;SDS011;65074;50.436;8.672;2023-04-25T01:54:44;9.25;;;5.35;;
76256;SDS011;65074;50.436;8.672;2023-04-25T01:57:11;10.52;;;6.25;;
76256;SDS011;65074;50.436;8.672;2023-04-25T01:59:38;12.80;;;5.90;;
76256;SDS011;65074;50.436;8.672;2023-04-25T02:02:11;12.27;;;5.90;;
76256;SDS011;65074;50.436;8.672;2023-04-25T02:04:37;13.07;;;5.53;;
76256;SDS011;65074;50.436;8.672;2023-04-25T02:07:03;11.27;;;7.10;;
76256;SDS011;65074;50.436;8.672;2023-04-25T02:09:38;10.95;;;5.68;;
76256;SDS011;65074;50.436;8.672;2023-04-25T02:12:05;11.68;;;5.88;;
76256;SDS011;65074;50.436;8.672;2023-04-25T02:14:53;13.63;;;6.55;;
76256;SDS011;65074;50.436;8.672;2023-04-25T02:17:33;14.00;;;7.13;;
76256;SDS011;65074;50.436;8.672;2023-04-25T02:19:58;16.27;;;7.37;;
76256;SDS011;65074;50.436;8.672;2023-04-25T02:22:24;15.93;;;6.78;;
76256;SDS011;65074;50.436;8.672;2023-04-25T02:24:49;14.25;;;7.25;;
76256;SDS011;65074;50.436;8.672;2023-04-25T02:27:14;13.50;;;6.77;;
76256;SDS011;65074;50.436;8.672;2023-04-25T02:29:40;12.00;;;5.93;;
76256;SDS011;65074;50.436;8.672;2023-04-25T02:32:05;11.57;;;5.80;;
76256;SDS011;65074;50.436;8.672;2023-04-25T02:34:30;8.50;;;4.40;;
76256;SDS011;65074;50.436;8.672;2023-04-25T02:36:59;11.80;;;6.00;;
76256;SDS011;65074;50.436;8.672;2023-04-25T02:39:24;12.37;;;5.77;;
76256;SDS011;65074;50.436;8.672;2023-04-25T02:41:52;8.32;;;4.95;;
76256;SDS011;65074;50.436;8.672;2023-04-25T02:44:17;19.63;;;6.20;;
76256;SDS011;65074;50.436;8.672;2023-04-25T02:46:44;11.50;;;5.78;;
76256;SDS011;65074;50.436;8.672;2023-04-25T02:49:09;16.50;;;5.23;;
76256;SDS011;65074;50.436;8.672;2023-04-25T02:51:34;12.45;;;4.90;;
76256;SDS011;65074;50.436;8.672;2023-04-25T02:54:00;15.00;;;6.53;;
76256;SDS011;65074;50.436;8.672;2023-04-25T02:56:25;8.77;;;4.45;;
76256;SDS011;65074;50.436;8.672;2023-04-25T02:58:52;11.40;;;5.15;;
76256;SDS011;65074;50.436;8.672;2023-04-25T03:01:17;14.65;;;6.07;;
76256;SDS011;65074;50.436;8.672;2023-04-25T03:03:42;12.60;;;5.60;;
76256;SDS011;65074;50.436;8.672;2023-04-25T03:06:08;8.40;;;3.95;;
76256;SDS011;65074;50.436;8.672;2023-04-25T03:08:33;9.97;;;4.00;;
76256;SDS011;65074;50.436;8.672;2023-04-25T03:11:00;9.43;;;4.35;;
76256;SDS011;65074;50.436;8.672;2023-04-25T03:13:26;8.52;;;4.57;;
76256;SDS011;65074;50.436;8.672;2023-04-25T03:15:52;12.75;;;4.10;;
76256;SDS011;65074;50.436;8.672;2023-04-25T03:18:18;8.30;;;4.00;;
76256;SDS011;65074;50.436;8.672;2023-04-25T03:20:43;5.80;;;2.60;;
76256;SDS011;65074;50.436;8.672;2023-04-25T03:23:08;10.23;;;4.33;;
76256;SDS011;65074;50.436;8.672;2023-04-25T03:25:34;7.05;;;3.50;;
76256;SDS011;65074;50.436;8.672;2023-04-25T03:28:00;7.10;;;2.63;;
76256;SDS011;65074;50.436;8.672;2023-04-25T03:30:25;7.05;;;3.42;;
76256;SDS011;65074;50.436;8.672;2023-04-25T03:32:50;6.03;;;3.07;;
76256;SDS011;65074;50.436;8.672;2023-04-25T03:35:16;8.70;;;3.47;;
76256;SDS011;65074;50.436;8.672;2023-04-25T03:37:41;5.30;;;2.90;;
76256;SDS011;65074;50.436;8.672;2023-04-25T03:40:11;10.13;;;3.85;;
76256;SDS011;65074;50.436;8.672;2023-04-25T03:43:07;5.85;;;2.88;;
76256;SDS011;65074;50.436;8.672;2023-04-25T03:45:33;10.57;;;3.35;;
76256;SDS011;65074;50.436;8.672;2023-04-25T03:47:58;9.15;;;3.05;;
76256;SDS011;65074;50.436;8.672;2023-04-25T03:50:27;6.38;;;3.33;;
76256;SDS011;65074;50.436;8.672;2023-04-25T03:52:52;4.70;;;2.72;;
76256;SDS011;65074;50.436;8.672;2023-04-25T03:55:17;5.90;;;2.90;;
76256;SDS011;65074;50.436;8.672;2023-04-25T03:57:43;4.43;;;2.45;;
76256;SDS011;65074;50.436;8.672;2023-04-25T04:00:08;7.13;;;2.90;;
76256;SDS011;65074;50.436;8.672;2023-04-25T04:02:40;10.50;;;3.38;;
76256;SDS011;65074;50.436;8.672;2023-04-25T04:05:07;7.68;;;3.40;;
76256;SDS011;65074;50.436;8.672;2023-04-25T04:07:36;7.43;;;3.22;;
76256;SDS011;65074;50.436;8.672;2023-04-25T04:10:07;8.95;;;3.38;;
76256;SDS011;65074;50.436;8.672;2023-04-25T04:12:36;11.10;;;3.88;;
76256;SDS011;65074;50.436;8.672;2023-04-25T04:15:02;8.95;;;3.22;;
76256;SDS011;65074;50.436;8.672;2023-04-25T04:17:28;10.10;;;3.42;;
76256;SDS011;65074;50.436;8.672;2023-04-25T04:19:54;9.75;;;3.65;;
76256;SDS011;65074;50.436;8.672;2023-04-25T04:22:20;7.80;;;3.25;;
76256;SDS011;65074;50.436;8.672;2023-04-25T04:24:46;9.40;;;3.67;;
76256;SDS011;65074;50.436;8.672;2023-04-25T04:27:16;8.85;;;2.97;;
76256;SDS011;65074;50.436;8.672;2023-04-25T04:29:57;11.05;;;3.70;;
76256;SDS011;65074;50.436;8.672;2023-04-25T04:32:31;6.50;;;3.05;;
76256;SDS011;65074;50.436;8.672;2023-04-25T04:34:59;7.28;;;3.40;;
76256;SDS011;65074;50.436;8.672;2023-04-25T04:37:25;10.90;;;4.05;;
76256;SDS011;65074;50.436;8.672;2023-04-25T04:39:50;7.87;;;2.93;;
76256;SDS011;65074;50.436;8.672;2023-04-25T04:42:43;7.32;;;2.72;;
76256;SDS011;65074;50.436;8.672;2023-04-25T04:45:30;10.70;;;3.58;;
76256;SDS011;65074;50.436;8.672;2023-04-25T04:48:14;10.70;;;4.35;;
76256;SDS011;65074;50.436;8.672;2023-04-25T04:50:58;8.40;;;3.65;;
76256;SDS011;65074;50.436;8.672;2023-04-25T04:53:42;8.77;;;4.43;;
76256;SDS011;65074;50.436;8.672;2023-04-25T04:56:14;8.20;;;3.97;;
76256;SDS011;65074;50.436;8.672;2023-04-25T04:58:51;8.07;;;3.83;;
76256;SDS011;65074;50.436;8.672;2023-04-25T05:01:20;8.25;;;3.65;;
76256;SDS011;65074;50.436;8.672;2023-04-25T05:03:58;9.63;;;3.80;;
76256;SDS011;65074;50.436;8.672;2023-04-25T05:06:44;9.27;;;3.40;;
76256;SDS011;65074;50.436;8.672;2023-04-25T05:09:32;5.60;;;2.90;;
76256;SDS011;65074;50.436;8.672;2023-04-25T05:12:18;10.35;;;3.60;;
76256;SDS011;65074;50.436;8.672;2023-04-25T05:15:13;7.97;;;3.35;;
76256;SDS011;65074;50.436;8.672;2023-04-25T05:18:11;7.05;;;2.90;;
76256;SDS011;65074;50.436;8.672;2023-04-25T05:20:56;4.75;;;2.63;;
76256;SDS011;65074;50.436;8.672;2023-04-25T05:23:33;5.68;;;2.35;;
76256;SDS011;65074;50.436;8.672;2023-04-25T05:26:13;5.25;;;2.55;;
76256;SDS011;65074;50.436;8.672;2023-04-25T05:28:57;3.28;;;2.45;;
76256;SDS011;65074;50.436;8.672;2023-04-25T05:31:36;4.20;;;1.83;;
76256;SDS011;65074;50.436;8.672;2023-04-25T05:34:08;6.53;;;1.58;;
76256;SDS011;65074;50.436;8.672;2023-04-25T05:36:46;4.82;;;2.40;;
76256;SDS011;65074;50.436;8.672;2023-04-25T05:39:17;6.43;;;2.03;;
76256;SDS011;65074;50.436;8.672;2023-04-25T05:42:06;2.92;;;1.70;;
76256;SDS011;65074;50.436;8.672;2023-04-25T05:45:03;4.65;;;2.25;;
76256;SDS011;65074;50.436;8.672;2023-04-25T05:47:49;2.70;;;1.30;;
76256;SDS011;65074;50.436;8.672;2023-04-25T05:50:19;4.07;;;1.95;;
76256;SDS011;65074;50.436;8.672;2023-04-25T05:52:51;3.08;;;1.83;;
76256;SDS011;65074;50.436;8.672;2023-04-25T05:55:23;4.72;;;1.65;;
76256;SDS011;65074;50.436;8.672;2023-04-25T05:57:49;5.45;;;1.83;;
76256;SDS011;65074;50.436;8.672;2023-04-25T06:00:15;4.10;;;1.70;;
76256;SDS011;65074;50.436;8.672;2023-04-25T06:02:42;6.22;;;2.65;;
76256;SDS011;65074;50.436;8.672;2023-04-25T06:05:09;7.63;;;2.50;;
76256;SDS011;65074;50.436;8.672;2023-04-25T06:07:35;4.38;;;2.67;;
76256;SDS011;65074;50.436;8.672;2023-04-25T06:10:01;5.97;;;2.58;;
76256;SDS011;65074;50.436;8.672;2023-04-25T06:12:27;5.57;;;2.40;;
76256;SDS011;65074;50.436;8.672;2023-04-25T06:14:53;5.53;;;2.42;;
76256;SDS011;65074;50.436;8.672;2023-04-25T06:17:18;5.40;;;2.40;;
76256;SDS011;65074;50.436;8.672;2023-04-25T06:19:43;6.13;;;2.00;;
76256;SDS011;65074;50.436;8.672;2023-04-25T06:22:08;5.13;;;2.75;;
76256;SDS011;65074;50.436;8.672;2023-04-25T06:24:35;5.85;;;2.25;;
76256;SDS011;65074;50.436;8.672;2023-04-25T06:27:02;3.78;;;1.85;;
76256;SDS011;65074;50.436;8.672;2023-04-25T06:29:28;6.60;;;3.10;;
76256;SDS011;65074;50.436;8.672;2023-04-25T06:31:53;6.57;;;2.70;;
76256;SDS011;65074;50.436;8.672;2023-04-25T06:34:20;4.95;;;2.85;;
76256;SDS011;65074;50.436;8.672;2023-04-25T06:36:45;6.75;;;2.70;;
76256;SDS011;65074;50.436;8.672;2023-04-25T06:39:14;10.75;;;2.78;;
76256;SDS011;65074;50.436;8.672;2023-04-25T06:41:39;6.95;;;2.50;;
76256;SDS011;65074;50.436;8.672;2023-04-25T06:44:06;9.52;;;3.17;;
76256;SDS011;65074;50.436;8.672;2023-04-25T06:46:37;4.28;;;2.55;;
76256;SDS011;65074;50.436;8.672;2023-04-25T06:49:03;6.03;;;2.92;;
76256;SDS011;65074;50.436;8.672;2023-04-25T06:51:28;6.18;;;2.55;;
76256;SDS011;65074;50.436;8.672;2023-04-25T06:53:55;6.30;;;3.05;;
76256;SDS011;65074;50.436;8.672;2023-04-25T06:56:27;7.13;;;2.38;;
76256;SDS011;65074;50.436;8.672;2023-04-25T06:59:01;8.27;;;2.95;;
76256;SDS011;65074;50.436;8.672;2023-04-25T07:01:32;5.63;;;2.50;;
76256;SDS011;65074;50.436;8.672;2023-04-25T07:03:59;6.80;;;3.20;;
76256;SDS011;65074;50.436;8.672;2023-04-25T07:06:25;5.32;;;2.90;;
76256;SDS011;65074;50.436;8.672;2023-04-25T07:08:53;7.47;;;3.20;;
76256;SDS011;65074;50.436;8.672;2023-04-25T07:11:19;6.35;;;2.88;;
76256;SDS011;65074;50.436;8.672;2023-04-25T07:13:45;8.05;;;3.00;;
76256;SDS011;65074;50.436;8.672;2023-04-25T07:16:10;5.90;;;3.33;;
76256;SDS011;65074;50.436;8.672;2023-04-25T07:18:36;3.60;;;2.50;;
76256;SDS011;65074;50.436;8.672;2023-04-25T07:21:03;7.03;;;3.85;;
76256;SDS011;65074;50.436;8.672;2023-04-25T07:23:31;6.25;;;2.30;;
76256;SDS011;65074;50.436;8.672;2023-04-25T07:25:59;4.65;;;2.80;;
76256;SDS011;65074;50.436;8.672;2023-04-25T07:28:25;7.93;;;3.42;;
76256;SDS011;65074;50.436;8.672;2023-04-25T07:30:50;6.67;;;3.03;;
76256;SDS011;65074;50.436;8.672;2023-04-25T07:33:16;7.38;;;3.22;;
76256;SDS011;65074;50.436;8.672;2023-04-25T07:35:41;6.90;;;2.60;;
76256;SDS011;65074;50.436;8.672;2023-04-25T07:38:08;6.22;;;3.67;;
76256;SDS011;65074;50.436;8.672;2023-04-25T07:40:35;5.75;;;2.75;;
76256;SDS011;65074;50.436;8.672;2023-04-25T07:43:05;4.28;;;2.40;;
76256;SDS011;65074;50.436;8.672;2023-04-25T07:45:47;7.05;;;2.47;;
76256;SDS011;65074;50.436;8.672;2023-04-25T07:48:17;5.65;;;2.90;;
76256;SDS011;65074;50.436;8.672;2023-04-25T07:50:44;7.00;;;3.20;;
76256;SDS011;65074;50.436;8.672;2023-04-25T07:53:10;7.60;;;2.80;;
76256;SDS011;65074;50.436;8.672;2023-04-25T07:55:43;6.38;;;2.95;;
76256;SDS011;65074;50.436;8.672;2023-04-25T07:58:14;5.65;;;2.53;;
76256;SDS011;65074;50.436;8.672;2023-04-25T08:00:42;5.85;;;2.97;;
76256;SDS011;65074;50.436;8.672;2023-04-25T08:03:26;4.32;;;2.47;;
76256;SDS011;65074;50.436;8.672;2023-04-25T08:05:52;7.75;;;3.50;;
76256;SDS011;65074;50.436;8.672;2023-04-25T08:08:18;4.88;;;2.63;;
76256;SDS011;65074;50.436;8.672;2023-04-25T08:10:44;5.30;;;3.03;;
76256;SDS011;65074;50.436;8.672;2023-04-25T08:13:11;5.95;;;3.33;;
76256;SDS011;65074;50.436;8.672;2023-04-25T08:15:36;3.75;;;2.25;;
76256;SDS011;65074;50.436;8.672;2023-04-25T08:18:02;6.38;;;2.90;;
76256;SDS011;65074;50.436;8.672;2023-04-25T08:20:29;5.40;;;2.80;;
76256;SDS011;65074;50.436;8.672;2023-04-25T08:22:56;6.75;;;3.83;;
76256;SDS011;65074;50.436;8.672;2023-04-25T08:25:39;7.18;;;3.88;;
76256;SDS011;65074;50.436;8.672;2023-04-25T08:28:05;7.90;;;3.15;;
76256;SDS011;65074;50.436;8.672;2023-04-25T08:30:31;5.07;;;2.92;;
76256;SDS011;65074;50.436;8.672;2023-04-25T08:32:56;7.50;;;2.88;;
76256;SDS011;65074;50.436;8.672;2023-04-25T08:35:34;4.57;;;2.55;;
76256;SDS011;65074;50.436;8.672;2023-04-25T08:38:00;3.95;;;2.80;;
76256;SDS011;65074;50.436;8.672;2023-04-25T08:40:26;7.55;;;3.05;;
76256;SDS011;65074;50.436;8.672;2023-04-25T08:43:07;4.60;;;2.90;;
76256;SDS011;65074;50.436;8.672;2023-04-25T08:45:40;5.40;;;3.13;;
76256;SDS011;65074;50.436;8.672;2023-04-25T08:48:14;6.05;;;3.05;;
76256;SDS011;65074;50.436;8.672;2023-04-25T08:50:40;4.75;;;2.78;;
76256;SDS011;65074;50.436;8.672;2023-04-25T08:53:10;6.07;;;2.97;;
76256;SDS011;65074;50.436;8.672;2023-04-25T08:55:38;6.13;;;3.10;;
76256;SDS011;65074;50.436;8.672;2023-04-25T08:58:08;6.18;;;3.63;;
76256;SDS011;65074;50.436;8.672;2023-04-25T09:00:35;8.23;;;4.25;;
76256;SDS011;65074;50.436;8.672;2023-04-25T09:03:00;7.78;;;3.42;;
76256;SDS011;65074;50.436;8.672;2023-04-25T09:05:29;6.55;;;3.13;;
76256;SDS011;65074;50.436;8.672;2023-04-25T09:07:55;5.28;;;2.92;;
76256;SDS011;65074;50.436;8.672;2023-04-25T09:10:22;4.50;;;3.50;;
76256;SDS011;65074;50.436;8.672;2023-04-25T09:13:04;4.78;;;2.97;;
76256;SDS011;65074;50.436;8.672;2023-04-25T09:15:53;5.65;;;3.55;;
76256;SDS011;65074;50.436;8.672;2023-04-25T09:18:37;5.80;;;2.53;;
76256;SDS011;65074;50.436;8.672;2023-04-25T09:21:07;7.07;;;3.63;;
76256;SDS011;65074;50.436;8.672;2023-04-25T09:24:06;11.55;;;3.47;;
76256;SDS011;65074;50.436;8.672;2023-04-25T09:26:25;6.25;;;3.40;;
76256;SDS011;65074;50.436;8.672;2023-04-25T09:28:57;6.60;;;2.70;;
76256;SDS011;65074;50.436;8.672;2023-04-25T09:31:29;3.75;;;2.70;;
76256;SDS011;65074;50.436;8.672;2023-04-25T09:34:01;5.00;;;1.80;;
76256;SDS011;65074;50.436;8.672;2023-04-25T09:36:27;3.70;;;2.13;;
76256;SDS011;65074;50.436;8.672;2023-04-25T09:39:19;3.35;;;1.48;;
76256;SDS011;65074;50.436;8.672;2023-04-25T09:41:54;3.90;;;1.70;;
76256;SDS011;65074;50.436;8.672;2023-04-25T09:44:23;4.13;;;2.00;;
76256;SDS011;65074;50.436;8.672;2023-04-25T09:46:49;1.90;;;1.45;;
76256;SDS011;65074;50.436;8.672;2023-04-25T09:49:20;5.40;;;1.70;;
76256;SDS011;65074;50.436;8.672;2023-04-25T09:52:21;4.55;;;1.73;;
76256;SDS011;65074;50.436;8.672;2023-04-25T09:54:58;2.85;;;1.73;;
76256;SDS011;65074;50.436;8.672;2023-04-25T09:57:29;3.28;;;1.30;;
76256;SDS011;65074;50.436;8.672;2023-04-25T09:59:56;4.18;;;1.80;;
76256;SDS011;65074;50.436;8.672;2023-04-25T10:02:25;3.33;;;1.70;;
76256;SDS011;65074;50.436;8.672;2023-04-25T10:04:54;4.25;;;1.58;;
76256;SDS011;65074;50.436;8.672;2023-04-25T10:07:30;4.65;;;1.80;;
76256;SDS011;65074;50.436;8.672;2023-04-25T10:12:21;2.93;;;2.00;;
76256;SDS011;65074;50.436;8.672;2023-04-25T10:14:47;2.20;;;1.65;;
76256;SDS011;65074;50.436;8.672;2023-04-25T10:17:12;3.50;;;1.55;;
76256;SDS011;65074;50.436;8.672;2023-04-25T10:19:38;2.47;;;1.50;;
76256;SDS011;65074;50.436;8.672;2023-04-25T10:22:08;3.05;;;1.30;;
76256;SDS011;65074;50.436;8.672;2023-04-25T10:24:34;5.72;;;1.50;;
76256;SDS011;65074;50.436;8.672;2023-04-25T10:27:00;3.95;;;1.33;;
76256;SDS011;65074;50.436;8.672;2023-04-25T10:29:26;4.20;;;1.58;;
76256;SDS011;65074;50.436;8.672;2023-04-25T10:31:52;3.25;;;1.58;;
76256;SDS011;65074;50.436;8.672;2023-04-25T10:34:17;5.95;;;1.90;;
76256;SDS011;65074;50.436;8.672;2023-04-25T10:36:43;4.95;;;1.50;;
76256;SDS011;65074;50.436;8.672;2023-04-25T10:39:13;6.85;;;1.92;;
76256;SDS011;65074;50.436;8.672;2023-04-25T10:41:46;3.00;;;1.50;;
76256;SDS011;65074;50.436;8.672;2023-04-25T10:44:13;2.45;;;1.58;;
76256;SDS011;65074;50.436;8.672;2023-04-25T10:46:38;4.28;;;1.77;;
76256;SDS011;65074;50.436;8.672;2023-04-25T10:49:03;1.83;;;1.00;;
76256;SDS011;65074;50.436;8.672;2023-04-25T10:56:20;3.53;;;1.70;;
76256;SDS011;65074;50.436;8.672;2023-04-25T10:58:46;3.00;;;1.33;;
76256;SDS011;65074;50.436;8.672;2023-04-25T11:01:13;1.92;;;1.17;;
76256;SDS011;65074;50.436;8.672;2023-04-25T11:03:42;2.92;;;1.52;;
76256;SDS011;65074;50.436;8.672;2023-04-25T11:06:15;4.68;;;1.58;;
76256;SDS011;65074;50.436;8.672;2023-04-25T11:08:50;4.55;;;1.60;;
76256;SDS011;65074;50.436;8.672;2023-04-25T11:11:18;4.25;;;1.50;;
76256;SDS011;65074;50.436;8.672;2023-04-25T11:13:47;2.63;;;1.38;;
76256;SDS011;65074;50.436;8.672;2023-04-25T11:16:13;3.90;;;1.70;;
76256;SDS011;65074;50.436;8.672;2023-04-25T11:18:40;2.90;;;1.47;;
76256;SDS011;65074;50.436;8.672;2023-04-25T11:21:05;2.35;;;1.40;;
76256;SDS011;65074;50.436;8.672;2023-04-25T11:23:31;3.42;;;1.42;;
76256;SDS011;65074;50.436;8.672;2023-04-25T11:25:56;3.55;;;1.92;;
76256;SDS011;65074;50.436;8.672;2023-04-25T11:28:22;4.30;;;1.75;;
76256;SDS011;65074;50.436;8.672;2023-04-25T11:30:51;2.95;;;1.73;;
76256;SDS011;65074;50.436;8.672;2023-04-25T11:33:16;3.28;;;1.30;;
76256;SDS011;65074;50.436;8.672;2023-04-25T11:35:42;5.27;;;1.87;;
76256;SDS011;65074;50.436;8.672;2023-04-25T11:38:07;2.80;;;1.83;;
76256;SDS011;65074;50.436;8.672;2023-04-25T11:40:32;3.60;;;1.43;;
76256;SDS011;65074;50.436;8.672;2023-04-25T11:42:59;2.33;;;1.73;;
76256;SDS011;65074;50.436;8.672;2023-04-25T11:45:24;3.35;;;1.88;;
76256;SDS011;65074;50.436;8.672;2023-04-25T11:47:50;3.50;;;1.50;;
76256;SDS011;65074;50.436;8.672;2023-04-25T11:50:15;4.95;;;2.05;;
76256;SDS011;65074;50.436;8.672;2023-04-25T11:52:41;3.53;;;1.33;;
76256;SDS011;65074;50.436;8.672;2023-04-25T11:55:13;4.35;;;1.60;;
76256;SDS011;65074;50.436;8.672;2023-04-25T11:57:40;3.17;;;1.67;;
76256;SDS011;65074;50.436;8.672;2023-04-25T12:00:09;4.63;;;1.60;;
76256;SDS011;65074;50.436;8.672;2023-04-25T12:02:37;3.55;;;1.40;;
76256;SDS011;65074;50.436;8.672;2023-04-25T12:05:08;4.18;;;2.35;;
76256;SDS011;65074;50.436;8.672;2023-04-25T12:07:34;3.25;;;2.10;;
76256;SDS011;65074;50.436;8.672;2023-04-25T12:10:03;4.55;;;2.05;;
76256;SDS011;65074;50.436;8.672;2023-04-25T12:12:32;3.65;;;2.05;;
76256;SDS011;65074;50.436;8.672;2023-04-25T12:15:07;5.00;;;2.08;;
76256;SDS011;65074;50.436;8.672;2023-04-25T12:17:33;4.63;;;1.98;;
76256;SDS011;65074;50.436;8.672;2023-04-25T12:19:58;3.85;;;1.75;;
76256;SDS011;65074;50.436;8.672;2023-04-25T12:22:24;4.13;;;2.07;;
76256;SDS011;65074;50.436;8.672;2023-04-25T12:24:49;3.35;;;2.03;;
76256;SDS011;65074;50.436;8.672;2023-04-25T12:27:15;2.83;;;1.83;;
76256;SDS011;65074;50.436;8.672;2023-04-25T12:29:49;4.78;;;2.00;;
76256;SDS011;65074;50.436;8.672;2023-04-25T12:32:15;2.70;;;1.48;;
76256;SDS011;65074;50.436;8.672;2023-04-25T12:34:41;4.15;;;2.25;;
76256;SDS011;65074;50.436;8.672;2023-04-25T12:37:07;3.30;;;2.00;;
76256;SDS011;65074;50.436;8.672;2023-04-25T12:39:32;4.45;;;2.20;;
76256;SDS011;65074;50.436;8.672;2023-04-25T12:41:57;4.43;;;1.50;;
76256;SDS011;65074;50.436;8.672;2023-04-25T12:44:24;3.17;;;2.10;;
76256;SDS011;65074;50.436;8.672;2023-04-25T12:46:49;5.07;;;1.67;;
76256;SDS011;65074;50.436;8.672;2023-04-25T12:49:15;3.63;;;2.00;;
76256;SDS011;65074;50.436;8.672;2023-04-25T12:51:40;7.78;;;2.58;;
76256;SDS011;65074;50.436;8.672;2023-04-25T12:54:06;3.58;;;2.08;;
76256;SDS011;65074;50.436;8.672;2023-04-25T12:56:32;3.90;;;1.75;;
76256;SDS011;65074;50.436;8.672;2023-04-25T12:58:57;6.15;;;1.92;;
76256;SDS011;65074;50.436;8.672;2023-04-25T13:01:23;2.22;;;1.85;;
76256;SDS011;65074;50.436;8.672;2023-04-25T13:03:49;6.00;;;2.60;;
76256;SDS011;65074;50.436;8.672;2023-04-25T13:06:15;3.53;;;1.98;;
76256;SDS011;65074;50.436;8.672;2023-04-25T13:08:40;3.55;;;1.92;;
76256;SDS011;65074;50.436;8.672;2023-04-25T13:11:06;5.70;;;2.42;;
76256;SDS011;65074;50.436;8.672;2023-04-25T13:13:32;4.23;;;2.20;;
76256;SDS011;65074;50.436;8.672;2023-04-25T13:15:59;1.90;;;1.70;;
76256;SDS011;65074;50.436;8.672;2023-04-25T13:18:24;5.93;;;2.10;;
76256;SDS011;65074;50.436;8.672;2023-04-25T13:20:54;6.93;;;2.00;;
76256;SDS011;65074;50.436;8.672;2023-04-25T13:23:20;4.97;;;1.33;;
76256;SDS011;65074;50.436;8.672;2023-04-25T13:25:46;4.43;;;1.52;;
76256;SDS011;65074;50.436;8.672;2023-04-25T13:28:11;3.58;;;1.80;;
76256;SDS011;65074;50.436;8.672;2023-04-25T13:30:36;4.77;;;1.27;;
76256;SDS011;65074;50.436;8.672;2023-04-25T13:33:02;3.33;;;1.50;;
76256;SDS011;65074;50.436;8.672;2023-04-25T13:35:28;7.45;;;1.90;;
76256;SDS011;65074;50.436;8.672;2023-04-25T13:37:54;4.40;;;1.58;;
76256;SDS011;65074;50.436;8.672;2023-04-25T13:40:19;3.90;;;1.40;;
76256;SDS011;65074;50.436;8.672;2023-04-25T13:42:44;4.63;;;1.63;;
76256;SDS011;65074;50.436;8.672;2023-04-25T13:45:10;3.65;;;1.45;;
76256;SDS011;65074;50.436;8.672;2023-04-25T13:47:36;3.83;;;1.83;;
76256;SDS011;65074;50.436;8.672;2023-04-25T13:50:01;4.95;;;1.70;;
76256;SDS011;65074;50.436;8.672;2023-04-25T13:52:28;5.50;;;1.20;;
76256;SDS011;65074;50.436;8.672;2023-04-25T13:54:54;2.05;;;1.30;;
76256;SDS011;65074;50.436;8.672;2023-04-25T13:57:19;4.68;;;1.50;;
76256;SDS011;65074;50.436;8.672;2023-04-25T13:59:44;4.28;;;2.22;;
76256;SDS011;65074;50.436;8.672;2023-04-25T14:02:11;3.88;;;1.73;;
76256;SDS011;65074;50.436;8.672;2023-04-25T14:04:36;3.03;;;1.23;;
76256;SDS011;65074;50.436;8.672;2023-04-25T14:07:02;4.13;;;1.80;;
76256;SDS011;65074;50.436;8.672;2023-04-25T14:09:27;3.17;;;1.58;;
76256;SDS011;65074;50.436;8.672;2023-04-25T14:11:53;2.65;;;1.75;;
76256;SDS011;65074;50.436;8.672;2023-04-25T14:14:18;2.40;;;1.55;;
76256;SDS011;65074;50.436;8.672;2023-04-25T14:16:44;3.50;;;1.50;;
76256;SDS011;65074;50.436;8.672;2023-04-25T14:19:09;1.83;;;1.05;;
76256;SDS011;65074;50.436;8.672;2023-04-25T14:21:34;3.67;;;1.70;;
76256;SDS011;65074;50.436;8.672;2023-04-25T14:24:00;2.90;;;1.60;;
76256;SDS011;65074;50.436;8.672;2023-04-25T14:26:25;4.03;;;1.63;;
76256;SDS011;65074;50.436;8.672;2023-04-25T14:28:51;3.03;;;1.30;;
76256;SDS011;65074;50.436;8.672;2023-04-25T14:31:16;2.22;;;1.35;;
76256;SDS011;65074;50.436;8.672;2023-04-25T14:33:41;2.47;;;1.53;;
76256;SDS011;65074;50.436;8.672;2023-04-25T14:36:08;4.63;;;1.83;;
76256;SDS011;65074;50.436;8.672;2023-04-25T14:38:33;6.03;;;1.60;;
76256;SDS011;65074;50.436;8.672;2023-04-25T14:40:58;4.70;;;1.42;;
76256;SDS011;65074;50.436;8.672;2023-04-25T14:43:24;2.00;;;1.50;;
76256;SDS011;65074;50.436;8.672;2023-04-25T14:45:49;3.13;;;1.63;;
76256;SDS011;65074;50.436;8.672;2023-04-25T14:48:14;2.20;;;1.70;;
76256;SDS011;65074;50.436;8.672;2023-04-25T14:50:40;6.22;;;2.00;;
76256;SDS011;65074;50.436;8.672;2023-04-25T14:53:05;2.53;;;1.57;;
76256;SDS011;65074;50.436;8.672;2023-04-25T14:55:31;5.43;;;1.53;;
76256;SDS011;65074;50.436;8.672;2023-04-25T14:57:56;5.10;;;2.33;;
76256;SDS011;65074;50.436;8.672;2023-04-25T15:00:21;4.17;;;1.90;;